Time;durP1;ratioP1;P1;durP2;ratioP2;P2;SDS_P1;SDS_P2;PMS_P1;PMS_P2;Temp;Humidity;BMP_temperature;BMP_pressure;BME280_temperature;BME280_humidity;BME280_pressure;Samples;Min_cycle;Max_cycle;Signal;HPM_P1;HPM_P2
2022/07/15 00:02:25;;;;;;;1.65;1.20;;;20.40;99.90;;;;;;5094398;28;20061;-76
2022/07/15 00:04:51;;;;;;;0.82;0.75;;;20.40;99.90;;;;;;5094343;28;20047;-76
2022/07/15 00:07:20;;;;;;;1.95;0.93;;;20.40;99.90;;;;;;5076413;28;20362;-75
2022/07/15 00:12:29;;;;;;;0.70;0.70;;;20.30;99.90;;;;;;5097910;28;20027;-75
2022/07/15 00:14:55;;;;;;;4.88;0.50;;;20.20;99.90;;;;;;5094169;28;20024;-75
2022/07/15 00:17:21;;;;;;;1.40;0.88;;;20.20;99.90;;;;;;5093906;28;20059;-76
2022/07/15 00:19:46;;;;;;;1.20;0.60;;;20.10;99.90;;;;;;5093925;28;20500;-77
2022/07/15 00:22:12;;;;;;;1.02;1.02;;;20.10;99.90;;;;;;5094058;28;20055;-75
2022/07/15 00:24:38;;;;;;;0.63;0.63;;;20.10;99.90;;;;;;5099219;28;20461;-75
2022/07/15 00:27:04;;;;;;;0.80;0.80;;;20.00;99.90;;;;;;5076506;28;20024;-75
2022/07/15 00:29:30;;;;;;;9.20;1.85;;;19.90;99.90;;;;;;5075358;28;20070;-76
2022/07/15 00:31:56;;;;;;;0.80;0.70;;;19.80;99.90;;;;;;5093732;28;20052;-75
2022/07/15 00:34:22;;;;;;;0.50;0.50;;;19.80;99.90;;;;;;5093907;28;20055;-75
2022/07/15 00:36:48;;;;;;;1.13;1.05;;;19.70;99.90;;;;;;5093769;28;20533;-75
2022/07/15 00:39:14;;;;;;;2.85;0.68;;;19.70;99.90;;;;;;5093757;28;20031;-75
2022/07/15 00:41:42;;;;;;;0.75;0.75;;;19.60;99.90;;;;;;5093617;28;20020;-76
2022/07/15 00:44:08;;;;;;;1.13;1.02;;;19.50;99.90;;;;;;5093404;28;20032;-75
2022/07/15 00:46:36;;;;;;;0.80;0.80;;;19.50;99.90;;;;;;5093357;28;20062;-75
2022/07/15 00:49:03;;;;;;;0.70;0.70;;;19.40;99.90;;;;;;5075190;28;20500;-75
2022/07/15 00:51:44;;;;;;;0.50;0.50;;;19.40;99.90;;;;;;5074955;28;20040;-76
2022/07/15 00:54:12;;;;;;;0.60;0.60;;;19.30;99.90;;;;;;5093348;28;20032;-76
2022/07/15 00:56:44;;;;;;;0.57;0.57;;;19.30;99.90;;;;;;5093427;28;20063;-76
2022/07/15 00:59:11;;;;;;;0.85;0.85;;;19.30;99.90;;;;;;5077458;28;20040;-74
2022/07/15 01:01:37;;;;;;;1.08;1.05;;;19.20;99.90;;;;;;5100443;28;20016;-75
2022/07/15 01:04:04;;;;;;;0.60;0.60;;;19.20;99.90;;;;;;5098939;28;20404;-76
2022/07/15 01:06:30;;;;;;;0.90;0.90;;;19.20;99.90;;;;;;5075852;28;20498;-74
2022/07/15 01:08:56;;;;;;;0.55;0.55;;;19.10;99.90;;;;;;5093265;28;20028;-75
2022/07/15 01:11:22;;;;;;;0.80;0.80;;;19.00;99.90;;;;;;5092992;28;20380;-76
2022/07/15 01:13:47;;;;;;;0.80;0.80;;;19.00;99.90;;;;;;5075070;28;20028;-75
2022/07/15 01:16:13;;;;;;;0.70;0.70;;;18.90;99.90;;;;;;5075157;28;20020;-74
2022/07/15 01:18:38;;;;;;;0.63;0.63;;;18.80;99.90;;;;;;5093227;28;20040;-75
2022/07/15 01:21:04;;;;;;;0.82;0.82;;;18.80;99.90;;;;;;5093332;28;20078;-78
2022/07/15 01:23:30;;;;;;;5.78;1.33;;;18.70;99.90;;;;;;5093019;28;20021;-75
2022/07/15 01:25:56;;;;;;;0.80;0.80;;;18.70;99.90;;;;;;5074784;28;20035;-75
2022/07/15 01:28:21;;;;;;;12.48;1.83;;;18.60;99.90;;;;;;5092930;28;20100;-74
2022/07/15 01:30:47;;;;;;;2.75;0.88;;;18.60;99.90;;;;;;5074860;28;20028;-75
2022/07/15 01:33:14;;;;;;;0.40;0.40;;;18.60;99.90;;;;;;5074953;28;20024;-75
2022/07/15 01:35:40;;;;;;;2.28;0.60;;;18.50;99.90;;;;;;5074789;28;20389;-74
2022/07/15 01:38:05;;;;;;;2.55;1.25;;;18.40;99.90;;;;;;5077366;28;20036;-75
2022/07/15 01:40:31;;;;;;;0.88;0.88;;;18.40;99.90;;;;;;5078750;28;20024;-74
2022/07/15 01:42:57;;;;;;;0.75;0.75;;;18.30;99.90;;;;;;5096773;28;20028;-77
2022/07/15 01:45:22;;;;;;;2.08;1.48;;;18.20;99.90;;;;;;5096759;28;20469;-76
2022/07/15 01:47:49;;;;;;;0.70;0.70;;;18.10;99.90;;;;;;5096675;28;20096;-75
2022/07/15 01:50:16;;;;;;;1.08;1.05;;;18.10;99.90;;;;;;5096745;28;20472;-75
2022/07/15 01:52:42;;;;;;;0.80;0.80;;;18.00;99.90;;;;;;5096564;28;20407;-75
2022/07/15 01:55:09;;;;;;;1.38;1.23;;;17.80;99.90;;;;;;5096694;28;20020;-75
2022/07/15 01:57:35;;;;;;;0.77;0.77;;;17.60;99.90;;;;;;5096547;28;20024;-76
2022/07/15 02:00:02;;;;;;;1.58;1.48;;;17.50;99.90;;;;;;5096553;28;20073;-76
2022/07/15 02:02:28;;;;;;;1.85;1.45;;;17.40;99.90;;;;;;5096345;28;20019;-76
2022/07/15 02:04:54;;;;;;;0.63;0.63;;;17.20;99.90;;;;;;5096399;28;20027;-75
2022/07/15 02:07:20;;;;;;;0.90;0.70;;;17.10;99.90;;;;;;5078109;28;20045;-79
2022/07/15 02:09:45;;;;;;;2.40;0.75;;;17.00;99.90;;;;;;5096581;28;20020;-76
2022/07/15 02:12:11;;;;;;;1.35;0.60;;;16.90;99.90;;;;;;5096494;28;20025;-75
2022/07/15 02:14:37;;;;;;;1.38;0.60;;;16.80;99.90;;;;;;5096521;28;20502;-78
2022/07/15 02:17:03;;;;;;;12.00;0.88;;;16.70;99.90;;;;;;5096340;28;20400;-77
2022/07/15 02:19:29;;;;;;;1.13;0.50;;;16.70;99.90;;;;;;5096192;28;20517;-76
2022/07/15 02:21:55;;;;;;;1.67;1.58;;;16.50;99.90;;;;;;5098866;28;20016;-76
2022/07/15 02:24:20;;;;;;;0.50;0.50;;;16.50;99.90;;;;;;5097916;28;20028;-75
2022/07/15 02:26:46;;;;;;;1.15;0.82;;;16.30;99.90;;;;;;5096011;28;20024;-75
2022/07/15 02:29:12;;;;;;;1.95;0.50;;;16.30;99.90;;;;;;5096024;28;20028;-76
2022/07/15 02:31:38;;;;;;;0.40;0.40;;;16.20;99.90;;;;;;5095929;28;20020;-75
2022/07/15 02:34:04;;;;;;;0.68;0.68;;;16.00;99.90;;;;;;5096491;28;20055;-74
2022/07/15 02:36:30;;;;;;;0.40;0.40;;;15.90;99.90;;;;;;5096372;28;20042;-75
2022/07/15 02:38:56;;;;;;;2.30;0.98;;;15.80;99.90;;;;;;5096144;28;20210;-76
2022/07/15 02:41:21;;;;;;;1.17;0.90;;;15.80;99.90;;;;;;5095900;28;20020;-76
2022/07/15 02:43:48;;;;;;;0.70;0.70;;;15.70;99.90;;;;;;5079883;28;20538;-76
2022/07/15 02:46:16;;;;;;;2.20;2.00;;;15.60;99.90;;;;;;5098287;28;20061;-76
2022/07/15 02:48:42;;;;;;;1.83;1.05;;;15.70;99.90;;;;;;5100375;28;20544;-75
2022/07/15 02:51:08;;;;;;;0.52;0.52;;;15.70;99.90;;;;;;5100565;28;20048;-76
2022/07/15 02:53:35;;;;;;;0.93;0.80;;;15.60;99.90;;;;;;5100654;28;20485;-75
2022/07/15 02:56:01;;;;;;;0.90;0.70;;;15.60;99.90;;;;;;5099512;28;20024;-76
2022/07/15 02:58:30;;;;;;;0.50;0.50;;;15.60;99.90;;;;;;5099170;28;20028;-76
2022/07/15 03:00:56;;;;;;;1.20;0.60;;;15.70;99.90;;;;;;5097395;28;20024;-76
2022/07/15 03:03:23;;;;;;;1.38;1.02;;;15.80;99.90;;;;;;5078912;28;20047;-75
2022/07/15 03:05:49;;;;;;;0.40;0.40;;;15.70;99.90;;;;;;5096787;28;20020;-75
2022/07/15 03:08:15;;;;;;;0.40;0.40;;;15.60;99.90;;;;;;5078237;28;20052;-77
2022/07/15 03:10:42;;;;;;;0.68;0.47;;;15.50;99.90;;;;;;5096308;28;20024;-76
2022/07/15 03:13:08;;;;;;;0.60;0.55;;;15.40;99.90;;;;;;5078194;28;20392;-76
2022/07/15 03:15:34;;;;;;;0.85;0.85;;;15.30;99.90;;;;;;5098863;28;20016;-75
2022/07/15 03:18:00;;;;;;;4.70;2.15;;;15.20;99.90;;;;;;5100050;28;20399;-76
2022/07/15 03:20:26;;;;;;;0.90;0.65;;;15.10;99.90;;;;;;5083013;28;20020;-74
2022/07/15 03:22:51;;;;;;;1.92;1.55;;;15.00;99.90;;;;;;5097670;28;20066;-76
2022/07/15 03:25:17;;;;;;;1.38;1.17;;;15.00;99.90;;;;;;5078800;28;20020;-75
2022/07/15 03:27:43;;;;;;;0.52;0.52;;;14.90;99.90;;;;;;5097708;28;20016;-75
2022/07/15 03:30:09;;;;;;;1.27;1.17;;;14.90;99.90;;;;;;5079701;28;20031;-75
2022/07/15 03:32:34;;;;;;;1.35;0.77;;;14.80;99.90;;;;;;5078427;28;20031;-76
2022/07/15 03:35:00;;;;;;;1.60;1.13;;;14.80;99.90;;;;;;5098104;28;20085;-76
2022/07/15 03:37:27;;;;;;;0.95;0.88;;;14.70;99.90;;;;;;5097390;28;20165;-75
2022/07/15 03:39:52;;;;;;;0.75;0.75;;;14.70;99.90;;;;;;5098492;28;20520;-75
2022/07/15 03:42:18;;;;;;;0.77;0.73;;;14.70;99.90;;;;;;5099904;28;20077;-76
2022/07/15 03:44:44;;;;;;;1.50;0.88;;;14.60;99.90;;;;;;5083727;28;20028;-76
2022/07/15 03:47:11;;;;;;;1.17;1.05;;;14.60;99.90;;;;;;5101219;28;20362;-75
2022/07/15 03:49:37;;;;;;;0.70;0.70;;;14.50;99.90;;;;;;5100735;28;20027;-77
2022/07/15 03:52:07;;;;;;;0.70;0.70;;;14.50;99.90;;;;;;5099187;28;20043;-76
2022/07/15 03:54:33;;;;;;;2.58;0.73;;;14.50;99.90;;;;;;5097740;28;20078;-76
2022/07/15 03:56:59;;;;;;;1.13;1.13;;;14.50;99.90;;;;;;5095716;28;20488;-77
2022/07/15 03:59:25;;;;;;;0.85;0.85;;;14.40;99.90;;;;;;5097884;28;20028;-76
2022/07/15 04:01:52;;;;;;;1.27;0.77;;;14.40;99.90;;;;;;5095116;28;20024;-75
2022/07/15 04:04:17;;;;;;;0.70;0.65;;;14.30;99.90;;;;;;5095755;28;20020;-76
2022/07/15 04:06:43;;;;;;;2.40;0.90;;;14.30;99.90;;;;;;5078190;28;20388;-76
2022/07/15 04:09:11;;;;;;;0.63;0.63;;;14.30;99.90;;;;;;5095910;28;20020;-78
2022/07/15 04:11:41;;;;;;;0.88;0.88;;;14.40;99.90;;;;;;5100594;28;20025;-77
2022/07/15 04:14:08;;;;;;;1.17;1.17;;;14.30;99.90;;;;;;5083327;28;20411;-78
2022/07/15 04:16:34;;;;;;;0.80;0.80;;;13.90;99.90;;;;;;5083792;28;20024;-74
2022/07/15 04:19:00;;;;;;;0.57;0.55;;;14.20;99.90;;;;;;5100692;28;20028;-77
2022/07/15 04:21:26;;;;;;;0.50;0.50;;;14.30;99.90;;;;;;5096247;28;20069;-79
2022/07/15 04:23:53;;;;;;;0.50;0.50;;;14.40;99.90;;;;;;5077547;28;20024;-76
2022/07/15 04:26:19;;;;;;;0.95;0.95;;;14.50;99.90;;;;;;5095028;28;20465;-76
2022/07/15 04:28:45;;;;;;;0.68;0.68;;;14.50;99.90;;;;;;5094939;28;20028;-76
2022/07/15 04:31:11;;;;;;;2.95;0.70;;;14.50;99.90;;;;;;5093911;28;20034;-77
2022/07/15 04:33:36;;;;;;;1.80;1.00;;;14.50;99.90;;;;;;5093655;28;20016;-76
2022/07/15 04:36:02;;;;;;;0.82;0.82;;;14.60;99.90;;;;;;5075529;28;20065;-76
2022/07/15 04:38:28;;;;;;;0.80;0.55;;;14.60;99.90;;;;;;5093608;28;20036;-77
2022/07/15 04:40:53;;;;;;;0.80;0.80;;;14.70;99.90;;;;;;5094486;28;20020;-75
2022/07/15 04:43:19;;;;;;;0.73;0.73;;;14.70;99.90;;;;;;5096599;28;20028;-75
2022/07/15 04:45:45;;;;;;;0.95;0.95;;;14.80;99.90;;;;;;5098686;28;20096;-76
2022/07/15 04:50:56;;;;;;;1.92;0.90;;;15.00;99.90;;;;;;5099040;28;20479;-75
2022/07/15 04:53:22;;;;;;;1.15;0.80;;;15.20;99.90;;;;;;5097168;28;20139;-75
2022/07/15 04:55:48;;;;;;;2.30;0.95;;;15.40;99.90;;;;;;5075732;28;20055;-77
2022/07/15 04:58:14;;;;;;;0.43;0.43;;;15.60;99.90;;;;;;5075255;28;20039;-76
2022/07/15 05:00:41;;;;;;;0.82;0.82;;;15.90;99.90;;;;;;5075135;28;20050;-78
2022/07/15 05:03:07;;;;;;;1.17;0.80;;;16.10;99.90;;;;;;5093324;28;20032;-76
2022/07/15 05:05:33;;;;;;;1.45;0.55;;;16.20;99.90;;;;;;5093275;28;20027;-77
2022/07/15 05:07:59;;;;;;;1.98;1.20;;;16.30;99.90;;;;;;5093051;28;20376;-78
2022/07/15 05:10:24;;;;;;;0.65;0.65;;;16.40;99.90;;;;;;5093065;28;20028;-75
2022/07/15 05:12:50;;;;;;;1.17;1.08;;;16.40;99.90;;;;;;5092608;28;20020;-76
2022/07/15 05:15:16;;;;;;;0.43;0.43;;;16.50;99.90;;;;;;5093150;28;20024;-78
2022/07/15 05:17:41;;;;;;;1.00;0.80;;;16.60;99.90;;;;;;5093232;28;20020;-76
2022/07/15 05:20:08;;;;;;;2.10;1.17;;;16.70;99.90;;;;;;5093206;28;20066;-79
2022/07/15 05:22:33;;;;;;;5.30;0.93;;;16.50;99.90;;;;;;5093320;28;20020;-79
2022/07/15 05:24:59;;;;;;;2.88;1.67;;;16.80;99.90;;;;;;5093194;28;20082;-79
2022/07/15 05:27:25;;;;;;;2.35;1.00;;;16.90;99.90;;;;;;5074883;28;20028;-81
2022/07/15 05:29:51;;;;;;;1.95;1.02;;;17.00;99.90;;;;;;5092831;28;20029;-79
2022/07/15 05:32:16;;;;;;;2.67;1.50;;;17.20;99.90;;;;;;5093010;28;20028;-76
2022/07/15 05:34:42;;;;;;;0.73;0.73;;;17.30;99.90;;;;;;5092951;28;20106;-79
2022/07/15 05:37:08;;;;;;;1.17;0.73;;;17.40;99.90;;;;;;5093275;28;20043;-78
2022/07/15 05:39:35;;;;;;;1.15;1.15;;;17.50;99.90;;;;;;5094069;28;20036;-78
2022/07/15 05:42:00;;;;;;;0.82;0.82;;;17.40;99.90;;;;;;5075987;28;20020;-78
2022/07/15 05:44:26;;;;;;;1.90;1.27;;;17.40;99.90;;;;;;5076073;28;20024;-78
2022/07/15 05:46:52;;;;;;;1.23;1.20;;;17.60;99.90;;;;;;5075937;28;20028;-77
2022/07/15 05:49:18;;;;;;;3.97;1.17;;;17.60;99.90;;;;;;5076659;28;20024;-78
2022/07/15 05:51:44;;;;;;;1.05;1.05;;;17.60;99.90;;;;;;5094756;28;20381;-78
2022/07/15 05:54:13;;;;;;;1.58;1.02;;;17.70;99.90;;;;;;5076185;28;20035;-78
2022/07/15 05:56:39;;;;;;;0.98;0.98;;;17.70;99.90;;;;;;5095255;28;20388;-77
2022/07/15 05:59:05;;;;;;;1.27;1.20;;;17.70;99.90;;;;;;5094718;28;20032;-77
2022/07/15 06:01:31;;;;;;;1.15;1.15;;;17.70;99.90;;;;;;5076717;28;20024;-78
2022/07/15 06:03:57;;;;;;;3.22;1.17;;;17.80;99.90;;;;;;5092934;28;20031;-79
2022/07/15 06:06:22;;;;;;;2.08;1.15;;;17.90;99.90;;;;;;5092654;28;20444;-78
2022/07/15 06:08:49;;;;;;;1.70;1.02;;;18.00;99.90;;;;;;5094680;28;20027;-77
2022/07/15 06:11:15;;;;;;;0.73;0.73;;;18.20;99.90;;;;;;5098444;28;20060;-78
2022/07/15 06:13:40;;;;;;;0.68;0.60;;;18.20;99.90;;;;;;5081348;28;20036;-78
2022/07/15 06:16:07;;;;;;;0.77;0.77;;;18.30;99.90;;;;;;5099209;28;20016;-77
2022/07/15 06:18:33;;;;;;;3.25;1.65;;;18.40;99.90;;;;;;5099597;28;20043;-77
2022/07/15 06:20:59;;;;;;;0.80;0.50;;;18.40;99.90;;;;;;5097246;28;20570;-77
2022/07/15 06:23:24;;;;;;;2.33;1.48;;;18.60;99.90;;;;;;5098529;28;20038;-76
2022/07/15 06:25:50;;;;;;;1.63;0.93;;;18.70;99.90;;;;;;5082609;28;20472;-76
2022/07/15 06:28:16;;;;;;;2.67;1.42;;;19.00;99.90;;;;;;5079631;28;20109;-77
2022/07/15 06:30:41;;;;;;;0.90;0.77;;;19.20;99.90;;;;;;5077885;28;20031;-79
2022/07/15 06:33:07;;;;;;;0.60;0.60;;;19.10;99.90;;;;;;5097196;28;20529;-76
2022/07/15 06:35:33;;;;;;;1.98;1.27;;;19.10;99.90;;;;;;5082125;28;20024;-76
2022/07/15 06:37:58;;;;;;;0.70;0.70;;;18.90;99.90;;;;;;5082445;28;20020;-77
2022/07/15 06:40:24;;;;;;;0.80;0.77;;;18.80;99.90;;;;;;5078302;28;20491;-78
2022/07/15 06:42:50;;;;;;;5.10;1.75;;;18.80;99.90;;;;;;5095568;28;20109;-77
2022/07/15 06:45:16;;;;;;;0.68;0.68;;;19.30;99.90;;;;;;5095994;28;20469;-77
2022/07/15 06:47:42;;;;;;;0.85;0.68;;;20.30;99.90;;;;;;5097547;28;20439;-77
2022/07/15 06:50:09;;;;;;;1.92;1.55;;;21.20;96.10;;;;;;5095964;28;20034;-78
2022/07/15 06:52:35;;;;;;;0.85;0.85;;;22.40;87.20;;;;;;5077464;28;20408;-77
2022/07/15 06:55:01;;;;;;;1.38;1.20;;;23.50;76.10;;;;;;5095506;28;20020;-77
2022/07/15 06:57:28;;;;;;;0.55;0.55;;;24.10;70.30;;;;;;5095425;28;20396;-78
2022/07/15 06:59:54;;;;;;;0.40;0.40;;;24.80;67.40;;;;;;5077085;28;20066;-77
2022/07/15 07:02:20;;;;;;;3.78;0.95;;;24.90;64.70;;;;;;5095218;28;20020;-77
2022/07/15 07:04:46;;;;;;;0.40;0.40;;;24.90;65.10;;;;;;5095279;28;20105;-77
2022/07/15 07:07:11;;;;;;;0.77;0.77;;;24.90;63.90;;;;;;5077218;28;20040;-79
2022/07/15 07:09:37;;;;;;;0.65;0.63;;;25.40;62.90;;;;;;5095310;28;20085;-78
2022/07/15 07:12:03;;;;;;;1.25;0.88;;;25.80;62.20;;;;;;5095274;28;20019;-79
2022/07/15 07:14:29;;;;;;;0.75;0.75;;;26.00;61.40;;;;;;5095527;28;20020;-78
2022/07/15 07:16:55;;;;;;;0.20;0.20;;;26.30;60.20;;;;;;5095004;28;20499;-78
2022/07/15 07:19:21;;;;;;;0.85;0.82;;;26.70;59.40;;;;;;5094872;28;20125;-78
2022/07/15 07:21:46;;;;;;;1.13;0.50;;;26.60;59.20;;;;;;5076732;28;20482;-78
2022/07/15 07:24:12;;;;;;;6.60;1.45;;;26.30;59.30;;;;;;5095105;28;20028;-79
2022/07/15 07:26:38;;;;;;;0.40;0.40;;;26.80;59.40;;;;;;5094911;28;20095;-78
2022/07/15 07:29:04;;;;;;;0.68;0.68;;;26.70;59.00;;;;;;5094998;28;20102;-77
2022/07/15 07:31:30;;;;;;;1.23;0.65;;;26.60;58.50;;;;;;5076724;28;20505;-79
2022/07/15 07:33:57;;;;;;;0.47;0.47;;;27.20;58.20;;;;;;5094635;28;20051;-79
2022/07/15 07:36:25;;;;;;;3.72;1.40;;;26.50;57.80;;;;;;5076090;28;20016;-78
2022/07/15 07:38:51;;;;;;;0.73;0.73;;;26.90;58.50;;;;;;5076230;28;20040;-78
2022/07/15 07:41:16;;;;;;;0.80;0.80;;;26.90;59.20;;;;;;5094649;28;20031;-77
2022/07/15 07:43:42;;;;;;;0.98;0.50;;;27.10;58.20;;;;;;5098123;28;20308;-78
2022/07/15 07:46:08;;;;;;;1.55;1.10;;;27.20;58.80;;;;;;5094587;28;20016;-79
2022/07/15 07:48:35;;;;;;;1.00;0.93;;;27.70;56.60;;;;;;5095065;28;20103;-78
2022/07/15 07:51:00;;;;;;;0.75;0.75;;;27.60;56.00;;;;;;5094410;28;20050;-81
2022/07/15 07:53:26;;;;;;;2.67;0.35;;;27.90;57.70;;;;;;5094319;28;20052;-81
2022/07/15 07:55:52;;;;;;;0.60;0.60;;;28.10;55.70;;;;;;5094514;28;20025;-78
2022/07/15 07:58:20;;;;;;;0.60;0.60;;;27.40;56.10;;;;;;5094391;28;20122;-79
2022/07/15 08:00:46;;;;;;;0.63;0.60;;;27.00;58.20;;;;;;5094853;28;20008;-83
2022/07/15 08:03:12;;;;;;;2.25;1.10;;;27.10;55.40;;;;;;5094778;28;20031;-86
2022/07/15 08:05:38;;;;;;;0.63;0.63;;;26.60;56.00;;;;;;5094684;28;20024;-82
2022/07/15 08:08:15;;;;;;;0.95;0.70;;;26.90;56.40;;;;;;5094558;28;20375;-83
2022/07/15 08:10:44;;;;;;;1.15;0.70;;;27.70;55.50;;;;;;5094137;28;20047;-83
2022/07/15 08:13:09;;;;;;;0.43;0.43;;;28.80;55.40;;;;;;5096962;28;20043;-83
2022/07/15 08:15:35;;;;;;;1.85;1.65;;;28.90;54.30;;;;;;5095410;28;20081;-80
2022/07/15 08:18:01;;;;;;;0.75;0.75;;;28.00;53.70;;;;;;5076550;28;20035;-79
2022/07/15 08:20:28;;;;;;;0.68;0.68;;;28.20;53.00;;;;;;5077370;28;20053;-86
2022/07/15 08:22:58;;;;;;;0.93;0.85;;;28.30;53.10;;;;;;5095132;28;20020;-83
2022/07/15 08:25:28;;;;;;;2.58;0.60;;;28.70;52.70;;;;;;5101225;28;20073;-84
2022/07/15 08:27:54;;;;;;;0.40;0.40;;;28.40;53.80;;;;;;5097243;28;20028;-89
2022/07/15 08:30:20;;;;;;;1.02;1.02;;;27.70;54.70;;;;;;5076091;28;20048;-77
2022/07/15 08:32:46;;;;;;;3.05;1.27;;;27.60;53.80;;;;;;5094011;28;20024;-82
2022/07/15 08:35:12;;;;;;;0.38;0.38;;;27.20;54.50;;;;;;5075891;28;20031;-82
2022/07/15 08:37:37;;;;;;;1.20;0.50;;;27.20;55.10;;;;;;5075638;28;20028;-83
2022/07/15 08:40:05;;;;;;;0.40;0.40;;;27.90;53.90;;;;;;5075695;28;20035;-79
2022/07/15 08:42:31;;;;;;;2.80;1.35;;;28.70;53.40;;;;;;5075706;28;20026;-81
2022/07/15 08:44:57;;;;;;;1.10;0.47;;;28.40;53.70;;;;;;5093536;28;20036;-77
2022/07/15 08:47:26;;;;;;;2.22;0.80;;;28.00;52.50;;;;;;5074624;28;20051;-76
2022/07/15 08:50:02;;;;;;;1.00;0.77;;;27.30;53.30;;;;;;5093551;28;20024;-76
2022/07/15 08:52:29;;;;;;;0.40;0.40;;;26.90;54.40;;;;;;5093215;28;20050;-75
2022/07/15 08:54:55;;;;;;;0.90;0.90;;;27.30;54.50;;;;;;5093410;28;20024;-76
2022/07/15 08:57:20;;;;;;;2.35;0.40;;;26.90;54.70;;;;;;5093373;28;20115;-76
2022/07/15 08:59:46;;;;;;;0.40;0.40;;;27.00;54.60;;;;;;5093414;28;20028;-76
2022/07/15 09:02:14;;;;;;;0.75;0.75;;;27.40;54.40;;;;;;5093350;28;20485;-75
2022/07/15 09:05:17;;;;;;;0.75;0.75;;;27.40;54.50;;;;;;5075307;28;20032;-75
2022/07/15 09:08:06;;;;;;;2.60;0.70;;;27.60;54.60;;;;;;5093097;28;20400;-76
2022/07/15 09:10:43;;;;;;;0.47;0.47;;;27.40;53.40;;;;;;5093107;28;20479;-75
2022/07/15 09:13:38;;;;;;;19.58;1.88;;;26.80;52.70;;;;;;5075053;28;20064;-74
2022/07/15 09:16:08;;;;;;;1.63;1.23;;;26.90;52.70;;;;;;5093173;28;20081;-75
2022/07/15 09:18:42;;;;;;;0.57;0.57;;;27.10;52.70;;;;;;5074872;28;20024;-76
2022/07/15 09:21:28;;;;;;;0.40;0.40;;;27.00;52.80;;;;;;5074789;28;20096;-77
2022/07/15 09:23:55;;;;;;;0.45;0.45;;;26.70;53.10;;;;;;5074115;28;20028;-77
2022/07/15 09:26:36;;;;;;;0.85;0.68;;;26.80;54.10;;;;;;5092651;28;20455;-77
2022/07/15 09:33:34;;;;;;;2.40;0.68;;;26.90;55.10;;;;;;5092950;28;20020;-76
2022/07/15 09:35:00;;;;;;;0.88;0.88;;;27.20;52.80;;;;;;5093036;28;20049;-80
2022/07/15 09:37:26;;;;;;;0.73;0.50;;;27.30;54.50;;;;;;5092941;28;20047;-74
2022/07/15 09:39:56;;;;;;;0.90;0.90;;;27.20;52.30;;;;;;5092463;28;20047;-75
2022/07/15 09:42:22;;;;;;;0.30;0.30;;;27.20;52.50;;;;;;5092738;28;20032;-74
2022/07/15 09:44:48;;;;;;;0.30;0.30;;;27.90;52.70;;;;;;5092341;28;20024;-75
2022/07/15 09:47:19;;;;;;;13.05;2.65;;;28.10;50.70;;;;;;5074591;28;20107;-75
2022/07/15 09:49:45;;;;;;;0.50;0.50;;;27.80;51.10;;;;;;5074663;28;20118;-77
2022/07/15 09:52:14;;;;;;;0.90;0.85;;;27.40;51.80;;;;;;5074585;28;20021;-76
2022/07/15 09:54:48;;;;;;;1.77;1.33;;;27.70;51.40;;;;;;5074669;28;20078;-76
2022/07/15 09:57:16;;;;;;;1.65;1.42;;;28.00;51.20;;;;;;5092571;28;20039;-79
2022/07/15 09:59:43;;;;;;;1.38;0.82;;;28.40;51.20;;;;;;5095982;28;20032;-77
2022/07/15 10:02:09;;;;;;;0.80;0.80;;;29.00;53.80;;;;;;5096426;28;20027;-76
2022/07/15 10:04:35;;;;;;;7.68;1.25;;;28.20;51.20;;;;;;5096489;28;20032;-75
2022/07/15 10:07:04;;;;;;;2.58;0.47;;;27.60;52.00;;;;;;5096593;28;20028;-76
2022/07/15 10:09:31;;;;;;;;;;;26.70;52.70;;;;;;5097213;28;20043;-85
2022/07/15 10:12:01;;;;;;;3.13;1.35;;;26.90;54.40;;;;;;5096433;28;19904;-80
2022/07/15 10:15:02;;;;;;;0.40;0.40;;;27.50;52.60;;;;;;5096184;28;20047;-80
2022/07/15 10:17:42;;;;;;;0.50;0.47;;;28.00;52.30;;;;;;5069949;28;20495;-75
2022/07/15 10:20:20;;;;;;;3.70;0.80;;;28.60;52.40;;;;;;5077904;28;20547;-76
2022/07/15 10:22:57;;;;;;;1.67;0.52;;;29.10;50.50;;;;;;5078113;28;20031;-79
2022/07/15 10:25:41;;;;;;;0.50;0.50;;;29.20;51.30;;;;;;5078444;28;20070;-79
2022/07/15 10:28:14;;;;;;;0.63;0.63;;;28.80;49.80;;;;;;5077938;28;20030;-76
2022/07/15 10:30:42;;;;;;;0.40;0.40;;;28.00;50.90;;;;;;5077746;28;20031;-81
2022/07/15 10:33:13;;;;;;;1.57;0.87;;;27.90;53.00;;;;;;5077686;28;20020;-80
2022/07/15 10:35:48;;;;;;;0.90;0.85;;;27.80;51.20;;;;;;5077748;28;20276;-81
2022/07/15 10:38:28;;;;;;;0.38;0.38;;;28.20;51.60;;;;;;5096040;28;20032;-80
2022/07/15 10:41:12;;;;;;;0.45;0.40;;;28.30;52.00;;;;;;5095856;28;20397;-78
2022/07/15 10:43:41;;;;;;;14.35;0.52;;;28.90;50.20;;;;;;5099598;28;20027;-77
2022/07/15 10:46:25;;;;;;;0.30;0.30;;;29.10;51.60;;;;;;5098003;28;20008;-78
2022/07/15 10:49:00;;;;;;;0.40;0.40;;;29.60;49.90;;;;;;5099201;28;20484;-76
2022/07/15 10:51:34;;;;;;;0.60;0.60;;;29.60;49.50;;;;;;5095515;28;20035;-74
2022/07/15 10:54:05;;;;;;;0.50;0.50;;;29.90;51.30;;;;;;5095203;28;20134;-75
2022/07/15 10:56:34;;;;;;;0.60;0.60;;;29.70;48.80;;;;;;5095369;28;20099;-76
2022/07/15 10:59:09;;;;;;;0.70;0.70;;;29.70;49.30;;;;;;5077291;28;20077;-76
2022/07/15 11:01:37;;;;;;;0.70;0.70;;;29.80;49.40;;;;;;5095378;28;20035;-77
2022/07/15 11:04:12;;;;;;;1.50;0.40;;;29.80;48.80;;;;;;5095317;28;20023;-75
2022/07/15 11:07:07;;;;;;;4.47;1.63;;;29.70;49.50;;;;;;5077279;28;20461;-75
2022/07/15 11:09:56;;;;;;;0.88;0.40;;;29.20;49.70;;;;;;5065311;28;20036;-79
2022/07/15 11:12:27;;;;;;;0.90;0.50;;;29.60;49.40;;;;;;5077172;28;20411;-78
2022/07/15 11:15:04;;;;;;;0.68;0.65;;;30.10;48.80;;;;;;5094892;28;20369;-75
2022/07/15 11:17:29;;;;;;;0.68;0.60;;;29.60;49.40;;;;;;5077001;28;20020;-77
2022/07/15 11:19:57;;;;;;;0.50;0.50;;;29.60;49.00;;;;;;5094970;28;20115;-76
2022/07/15 11:22:26;;;;;;;0.40;0.40;;;29.30;49.70;;;;;;5077044;28;20087;-77
2022/07/15 11:24:52;;;;;;;0.63;0.63;;;29.80;49.10;;;;;;5076840;28;20035;-76
2022/07/15 11:27:22;;;;;;;0.60;0.60;;;30.50;48.10;;;;;;5082560;28;20028;-75
2022/07/15 11:30:02;;;;;;;0.68;0.68;;;31.00;47.50;;;;;;5076702;28;20059;-75
2022/07/15 11:32:30;;;;;;;0.80;0.20;;;31.10;48.90;;;;;;5076545;28;20031;-75
2022/07/15 11:34:58;;;;;;;0.75;0.75;;;30.40;48.90;;;;;;5096398;28;20051;-74
2022/07/15 11:37:32;;;;;;;0.55;0.47;;;29.90;49.40;;;;;;5094738;28;20117;-79
2022/07/15 11:46:04;;;;;;;0.57;0.57;;;29.40;49.30;;;;;;5095095;28;20031;-77
2022/07/15 11:48:34;;;;;;;0.77;0.77;;;30.20;49.50;;;;;;5094418;28;20022;-76
2022/07/15 11:51:00;;;;;;;1.55;0.63;;;30.40;48.30;;;;;;5076083;28;20077;-77
2022/07/15 11:53:26;;;;;;;0.77;0.68;;;30.30;48.00;;;;;;5094366;28;20073;-77
2022/07/15 11:55:57;;;;;;;1.23;0.73;;;29.70;49.30;;;;;;5076151;28;20024;-76
2022/07/15 11:58:31;;;;;;;0.70;0.70;;;29.90;48.20;;;;;;5094461;28;20437;-75
2022/07/15 12:00:58;;;;;;;0.77;0.43;;;30.70;47.20;;;;;;5076187;28;20027;-74
2022/07/15 12:03:31;;;;;;;0.40;0.40;;;30.70;48.80;;;;;;5076114;28;20020;-76
2022/07/15 12:06:18;;;;;;;0.57;0.57;;;30.60;47.90;;;;;;5075916;28;20028;-75
2022/07/15 12:08:55;;;;;;;0.40;0.40;;;30.50;50.10;;;;;;5075901;28;20047;-74
2022/07/15 12:11:28;;;;;;;0.70;0.70;;;30.10;48.60;;;;;;5075978;28;20024;-73
2022/07/15 12:14:10;;;;;;;0.50;0.47;;;30.20;47.50;;;;;;5075901;28;20426;-75
2022/07/15 12:16:41;;;;;;;1.33;0.28;;;30.10;50.30;;;;;;5075846;28;20024;-74
2022/07/15 12:19:20;;;;;;;0.60;0.52;;;30.70;47.70;;;;;;5075710;28;20093;-75
2022/07/15 12:21:50;;;;;;;1.38;0.63;;;31.00;47.40;;;;;;5085018;28;20020;-75
2022/07/15 12:24:18;;;;;;;0.38;0.30;;;31.30;46.80;;;;;;5104422;28;20016;-76
2022/07/15 12:26:49;;;;;;;0.82;0.82;;;31.00;47.80;;;;;;5099913;28;20020;-75
2022/07/15 12:29:20;;;;;;;2.95;1.63;;;31.00;46.50;;;;;;5085381;28;20438;-77
2022/07/15 12:31:52;;;;;;;0.40;0.40;;;31.60;45.80;;;;;;5095768;28;20030;-76
2022/07/15 12:34:18;;;;;;;0.60;0.60;;;32.50;46.20;;;;;;5093779;28;20020;-76
2022/07/15 12:36:55;;;;;;;3.30;0.57;;;32.40;45.90;;;;;;5075728;28;20038;-76
2022/07/15 12:39:21;;;;;;;0.52;0.50;;;32.20;46.00;;;;;;5093482;28;20392;-76
2022/07/15 12:41:59;;;;;;;0.57;0.57;;;31.80;46.30;;;;;;5075276;28;20020;-76
2022/07/15 12:44:24;;;;;;;0.40;0.40;;;31.40;45.40;;;;;;5093504;28;20408;-78
2022/07/15 12:46:59;;;;;;;4.57;0.52;;;31.80;46.70;;;;;;5075328;28;20057;-77
2022/07/15 12:49:42;;;;;;;0.60;0.60;;;32.50;45.20;;;;;;5093536;28;20020;-78
2022/07/15 12:52:21;;;;;;;0.47;0.47;;;33.80;43.70;;;;;;5093447;28;20074;-75
2022/07/15 12:54:47;;;;;;;0.45;0.45;;;33.90;43.00;;;;;;5093769;28;20024;-77
2022/07/15 12:57:25;;;;;;;0.57;0.52;;;32.00;44.90;;;;;;5093711;28;20055;-78
2022/07/15 13:00:04;;;;;;;1.27;0.60;;;30.40;46.80;;;;;;5093396;28;20032;-76
2022/07/15 13:02:31;;;;;;;0.45;0.45;;;29.70;49.70;;;;;;5093445;28;20429;-76
2022/07/15 13:04:57;;;;;;;0.80;0.80;;;29.10;48.20;;;;;;5075548;28;20123;-78
2022/07/15 13:07:24;;;;;;;1.80;0.82;;;28.80;48.80;;;;;;5093577;28;20020;-77
2022/07/15 13:09:50;;;;;;;0.30;0.30;;;28.80;49.60;;;;;;5075443;28;20043;-75